createdAt,value
2019-03-21T00:01:02.253Z,102901.97
2019-03-21T00:03:32.847Z,102907.03
2019-03-21T00:06:04.396Z,102904.03
2019-03-21T00:08:35.243Z,102905.44
2019-03-21T00:11:48.260Z,102905.14
2019-03-21T00:14:45.591Z,102907.83
2019-03-21T00:17:17.347Z,102904.33
2019-03-21T00:19:47.963Z,102904.77
2019-03-21T00:22:18.646Z,102908.86
2019-03-21T00:24:49.219Z,102907.63
2019-03-21T00:27:19.921Z,102906.59
2019-03-21T00:29:50.505Z,102904.52
2019-03-21T00:32:21.131Z,102903.14
2019-03-21T00:34:51.799Z,102901.69
2019-03-21T00:37:22.405Z,102907.27
2019-03-21T00:39:53.081Z,102908.19
2019-03-21T00:42:23.710Z,102905.09
2019-03-21T00:44:54.343Z,102900.58
2019-03-21T00:47:24.990Z,102901.78
2019-03-21T00:49:55.685Z,102897.02
2019-03-21T00:52:26.365Z,102893.14
2019-03-21T00:54:57.238Z,102892.70
2019-03-21T00:57:28.026Z,102887.63
2019-03-21T01:00:00.398Z,102885.48
2019-03-21T01:02:31.087Z,102884.55
2019-03-21T01:05:01.754Z,102884.55
2019-03-21T01:07:32.472Z,102884.23
2019-03-21T01:10:03.215Z,102885.03
2019-03-21T01:12:33.990Z,102878.58
2019-03-21T01:15:04.640Z,102879.47
2019-03-21T01:17:35.706Z,102877.64
2019-03-21T01:20:07.864Z,102876.88
2019-03-21T01:22:38.533Z,102872.45
2019-03-21T01:25:11.509Z,102871.55
2019-03-21T01:27:42.215Z,102872.45
2019-03-21T01:30:14.264Z,102872.84
2019-03-21T01:32:45.002Z,102872.19
2019-03-21T01:35:16.282Z,102873.84
2019-03-21T01:37:46.936Z,102867.30
2019-03-21T01:40:20.210Z,102863.63
2019-03-21T01:42:50.782Z,102871.64
2019-03-21T01:45:22.724Z,102863.84
2019-03-21T01:47:53.972Z,102867.03
2019-03-21T01:50:24.902Z,102870.98
2019-03-21T01:52:55.576Z,102862.09
2019-03-21T01:55:26.252Z,102854.63
2019-03-21T01:57:56.949Z,102857.31
2019-03-21T02:00:30.388Z,102863.81
2019-03-21T02:03:01.070Z,102861.22
2019-03-21T02:05:32.002Z,102858.13
2019-03-21T02:08:02.719Z,102854.17
2019-03-21T02:10:33.354Z,102857.53
2019-03-21T02:13:03.946Z,102847.37
2019-03-21T02:15:34.664Z,102857.14
2019-03-21T02:18:05.461Z,102851.45
2019-03-21T02:20:36.132Z,102851.36
2019-03-21T02:23:06.886Z,102851.77
2019-03-21T02:25:37.574Z,102848.48
2019-03-21T02:28:08.302Z,102846.07
2019-03-21T02:30:38.882Z,102835.99
2019-03-21T02:33:16.123Z,102845.05
2019-03-21T02:35:46.747Z,102844.14
2019-03-21T02:38:17.347Z,102842.13
2019-03-21T02:40:47.966Z,102843.03
2019-03-21T02:43:18.543Z,102844.95
2019-03-21T02:45:49.377Z,102845.30
2019-03-21T02:48:19.939Z,102850.59
2019-03-21T02:50:50.621Z,102842.41
2019-03-21T02:53:21.213Z,102848.17
2019-03-21T02:55:51.902Z,102849.25
2019-03-21T02:58:22.574Z,102847.09
2019-03-21T03:00:53.160Z,102843.87
2019-03-21T03:03:23.799Z,102836.84
2019-03-21T03:05:54.460Z,102845.22
2019-03-21T03:08:25.105Z,102845.58
2019-03-21T03:10:55.930Z,102840.56
2019-03-21T03:13:26.555Z,102847.15
2019-03-21T03:15:57.134Z,102843.48
2019-03-21T03:18:27.729Z,102840.91
2019-03-21T03:20:58.325Z,102843.48
2019-03-21T03:23:29.034Z,102841.05
2019-03-21T03:25:59.652Z,102847.72
2019-03-21T03:28:30.304Z,102851.84
2019-03-21T03:31:02.394Z,102854.53
2019-03-21T03:33:32.974Z,102851.89
2019-03-21T03:36:03.675Z,102851.36
2019-03-21T03:38:34.294Z,102848.13
2019-03-21T03:41:05.906Z,102857.36
2019-03-21T03:43:36.497Z,102852.30
2019-03-21T03:46:07.109Z,102855.92
2019-03-21T03:48:37.683Z,102853.50
2019-03-21T03:51:08.273Z,102857.04
2019-03-21T03:53:42.272Z,102855.30
2019-03-21T03:56:11.146Z,102853.23
2019-03-21T03:58:42.981Z,102854.89
2019-03-21T04:01:13.794Z,102862.78
2019-03-21T04:03:44.481Z,102864.84
2019-03-21T04:06:15.169Z,102866.63
2019-03-21T04:08:45.812Z,102862.38
2019-03-21T04:11:16.390Z,102867.40
2019-03-21T04:13:46.987Z,102861.22
2019-03-21T04:16:17.593Z,102864.26
2019-03-21T04:18:48.215Z,102860.13
2019-03-21T04:21:18.833Z,102865.25
2019-03-21T04:23:49.438Z,102863.19
2019-03-21T04:26:26.335Z,102855.39
2019-03-21T04:28:56.875Z,102857.27
2019-03-21T04:31:27.453Z,102852.79
2019-03-21T04:33:59.911Z,102851.77
2019-03-21T04:36:30.500Z,102852.07
2019-03-21T04:39:01.900Z,102852.07
2019-03-21T04:41:32.462Z,102855.80
2019-03-21T04:44:03.146Z,102853.82
2019-03-21T04:46:33.720Z,102851.49
2019-03-21T04:49:04.462Z,102848.98
2019-03-21T04:51:35.106Z,102847.91
2019-03-21T04:54:05.772Z,102851.18
2019-03-21T04:56:36.329Z,102848.80
2019-03-21T04:59:06.993Z,102853.59
2019-03-21T05:01:37.543Z,102843.83
2019-03-21T05:04:08.151Z,102836.80
2019-03-21T05:06:38.744Z,102841.50
2019-03-21T05:09:12.829Z,102845.48
2019-03-21T05:11:43.412Z,102840.47
2019-03-21T05:14:14.113Z,102848.48
2019-03-21T05:16:44.709Z,102848.67
2019-03-21T05:19:15.607Z,102847.72
2019-03-21T05:21:46.807Z,102840.74
2019-03-21T05:24:17.436Z,102848.84
2019-03-21T05:26:48.041Z,102847.95
2019-03-21T05:29:18.646Z,102848.98
2019-03-21T05:31:49.259Z,102856.76
2019-03-21T05:34:19.941Z,102857.77
2019-03-21T05:36:50.651Z,102851.75
2019-03-21T05:39:21.301Z,102849.50
2019-03-21T05:41:51.873Z,102849.91
2019-03-21T05:44:32.478Z,102849.38
2019-03-21T05:47:03.074Z,102846.73
2019-03-21T05:49:33.713Z,102845.27
2019-03-21T05:52:04.303Z,102836.06
2019-03-21T05:54:34.905Z,102847.41
2019-03-21T05:57:05.491Z,102844.54
2019-03-21T05:59:36.125Z,102849.75
2019-03-21T06:02:06.734Z,102846.87
2019-03-21T06:04:37.478Z,102848.89
2019-03-21T06:07:38.439Z,102844.73
2019-03-21T06:10:12.885Z,102850.73
2019-03-21T06:12:46.609Z,102854.00
2019-03-21T06:15:20.509Z,102849.52
2019-03-21T06:18:19.982Z,102853.28
2019-03-21T06:21:02.666Z,102853.82
2019-03-21T06:23:58.147Z,102857.53
2019-03-21T06:26:36.710Z,102854.45
2019-03-21T06:29:07.353Z,102861.35
2019-03-21T06:31:37.916Z,102859.02
2019-03-21T06:34:08.511Z,102859.68
2019-03-21T06:36:39.097Z,102861.88
2019-03-21T06:39:10.176Z,102865.02
2019-03-21T06:41:40.776Z,102870.89
2019-03-21T06:44:11.374Z,102875.77
2019-03-21T06:46:49.482Z,102867.41
2019-03-21T06:49:14.304Z,102872.86
2019-03-21T06:51:44.995Z,102877.70
2019-03-21T06:54:15.622Z,102876.84
2019-03-21T06:56:46.194Z,102877.42
2019-03-21T06:59:16.820Z,102871.19
2019-03-21T07:01:47.561Z,102870.52
2019-03-21T07:04:18.245Z,102871.47
2019-03-21T07:06:48.938Z,102871.52
2019-03-21T07:09:19.619Z,102868.55
2019-03-21T07:11:50.261Z,102867.15
2019-03-21T07:14:20.976Z,102871.69
2019-03-21T07:17:00.085Z,102878.96
2019-03-21T07:19:23.853Z,102875.48
2019-03-21T07:21:54.446Z,102880.02
2019-03-21T07:24:25.128Z,102875.40
2019-03-21T07:26:55.714Z,102872.53
2019-03-21T07:29:26.320Z,102881.70
2019-03-21T07:31:56.902Z,102879.54
2019-03-21T07:34:27.526Z,102887.34
2019-03-21T07:36:58.241Z,102882.89
2019-03-21T07:39:28.933Z,102885.24
2019-03-21T07:42:01.185Z,102887.94
2019-03-21T07:44:31.758Z,102880.67
2019-03-21T07:47:12.196Z,102871.63
2019-03-21T07:49:34.766Z,102881.94
2019-03-21T07:52:05.387Z,102875.66
2019-03-21T07:54:35.986Z,102881.97
2019-03-21T07:57:06.594Z,102882.50
2019-03-21T07:59:37.196Z,102884.03
2019-03-21T08:02:07.816Z,102881.81
2019-03-21T08:04:38.423Z,102884.42
2019-03-21T08:07:09.045Z,102895.68
2019-03-21T08:09:39.750Z,102902.33
2019-03-21T08:12:10.476Z,102901.96
2019-03-21T08:14:41.116Z,102908.87
2019-03-21T08:17:11.724Z,102905.94
2019-03-21T08:19:42.288Z,102911.13
2019-03-21T08:22:12.946Z,102913.27
2019-03-21T08:24:43.557Z,102915.65
2019-03-21T08:27:14.160Z,102919.81
2019-03-21T08:29:44.746Z,102915.91
2019-03-21T08:32:15.389Z,102916.20
2019-03-21T08:34:46.036Z,102923.85
2019-03-21T08:37:16.642Z,102925.30
2019-03-21T08:39:47.223Z,102925.30
2019-03-21T08:42:17.822Z,102926.91
2019-03-21T08:44:48.489Z,102938.23
2019-03-21T08:47:19.062Z,102931.21
2019-03-21T08:49:49.725Z,102936.72
2019-03-21T08:52:20.467Z,102937.55
2019-03-21T08:54:51.044Z,102945.69
2019-03-21T08:57:21.762Z,102943.12
2019-03-21T08:59:52.467Z,102951.79
2019-03-21T09:02:23.091Z,102945.63
2019-03-21T09:04:53.696Z,102933.39
2019-03-21T09:07:24.362Z,102933.39
2019-03-21T09:09:55.000Z,102944.73
2019-03-21T09:12:25.676Z,102946.34
2019-03-21T09:14:56.247Z,102946.34
2019-03-21T09:17:26.827Z,102946.34
2019-03-21T09:19:58.347Z,102951.02
2019-03-21T09:22:28.983Z,102951.02
2019-03-21T09:24:59.573Z,102940.51
2019-03-21T09:27:30.275Z,102943.25
2019-03-21T09:30:00.907Z,102938.45
2019-03-21T09:32:31.557Z,102946.15
2019-03-21T09:35:02.152Z,102946.41
2019-03-21T09:37:32.751Z,102940.78
2019-03-21T09:40:03.309Z,102944.67
2019-03-21T09:42:33.904Z,102944.67
2019-03-21T09:45:05.147Z,102939.29
2019-03-21T09:47:35.847Z,102939.29
2019-03-21T09:50:07.297Z,102943.40
2019-03-21T09:52:38.661Z,102948.92
2019-03-21T09:55:10.958Z,102942.89
2019-03-21T09:57:43.253Z,102948.66
2019-03-21T10:00:18.638Z,102949.36
2019-03-21T10:02:50.965Z,102946.67
2019-03-21T10:05:39.529Z,102955.57
2019-03-21T10:08:11.859Z,102952.96
2019-03-21T10:10:44.165Z,102952.96
2019-03-21T10:13:32.583Z,102950.58
2019-03-21T10:16:21.517Z,102961.60
2019-03-21T10:19:10.257Z,102960.34
2019-03-21T10:21:58.875Z,102961.69
2019-03-21T10:24:46.135Z,102963.53
2019-03-21T10:27:15.965Z,102962.05
2019-03-21T10:29:46.645Z,102955.25
2019-03-21T10:32:17.261Z,102964.89
2019-03-21T10:34:47.963Z,102964.89
2019-03-21T10:37:18.591Z,102967.72
2019-03-21T10:39:49.199Z,102961.47
2019-03-21T10:42:19.841Z,102952.96
2019-03-21T10:44:50.447Z,102962.70
2019-03-21T10:47:21.503Z,102957.04
2019-03-21T10:49:52.116Z,102963.45
2019-03-21T10:52:22.703Z,102963.45
2019-03-21T10:54:53.306Z,102964.05
2019-03-21T10:57:23.932Z,102964.43
2019-03-21T10:59:54.560Z,102967.69
2019-03-21T11:02:25.117Z,102960.23
2019-03-21T11:04:55.773Z,102961.74
2019-03-21T11:07:24.213Z,102958.64
2019-03-21T11:09:54.871Z,102963.40
2019-03-21T11:12:25.462Z,102959.67
2019-03-21T11:14:56.092Z,102959.67
2019-03-21T11:17:26.688Z,102964.34
2019-03-21T11:19:57.303Z,102955.59
2019-03-21T11:22:27.863Z,102956.80
2019-03-21T11:24:58.457Z,102957.16
2019-03-21T11:27:29.073Z,102943.27
2019-03-21T11:29:59.701Z,102943.27
2019-03-21T11:32:30.273Z,102945.86
2019-03-21T11:35:00.929Z,102947.50
2019-03-21T11:37:31.479Z,102942.86
2019-03-21T11:40:02.096Z,102938.98
2019-03-21T11:42:32.685Z,102935.55
2019-03-21T11:45:03.331Z,102927.11
2019-03-21T11:47:41.796Z,102942.64
2019-03-21T11:50:06.564Z,102933.79
2019-03-21T11:52:37.138Z,102936.64
2019-03-21T11:55:08.062Z,102941.46
2019-03-21T11:57:38.614Z,102940.66
2019-03-21T12:00:09.840Z,102936.73
2019-03-21T12:02:40.410Z,102931.45
2019-03-21T12:05:11.164Z,102929.13
2019-03-21T12:07:41.728Z,102937.06
2019-03-21T12:10:12.542Z,102924.28
2019-03-21T12:12:43.295Z,102918.34
2019-03-21T12:15:14.012Z,102923.58
2019-03-21T12:17:44.614Z,102919.18
2019-03-21T12:20:17.839Z,102920.00
2019-03-21T12:22:48.385Z,102915.33
2019-03-21T12:25:19.006Z,102919.06
2019-03-21T12:27:49.577Z,102919.38
2019-03-21T12:30:29.084Z,102918.88
2019-03-21T12:32:58.932Z,102915.25
2019-03-21T12:35:29.552Z,102914.23
2019-03-21T12:38:00.144Z,102916.29
2019-03-21T12:40:30.835Z,102914.77
2019-03-21T12:43:01.400Z,102915.73
2019-03-21T12:45:32.014Z,102924.82
2019-03-21T12:48:02.604Z,102917.02
2019-03-21T12:50:33.319Z,102912.94
2019-03-21T12:53:03.985Z,102906.89
2019-03-21T12:55:34.614Z,102899.12
2019-03-21T12:58:05.211Z,102906.31
2019-03-21T13:00:40.428Z,102908.20
2019-03-21T13:03:10.972Z,102909.42
2019-03-21T13:05:41.612Z,102905.56
2019-03-21T13:08:12.182Z,102897.58
2019-03-21T13:10:43.191Z,102897.40
2019-03-21T13:13:13.842Z,102902.02
2019-03-21T13:15:44.434Z,102894.28
2019-03-21T13:18:15.044Z,102897.22
2019-03-21T13:20:46.106Z,102885.89
2019-03-21T13:23:16.802Z,102886.70
2019-03-21T13:25:47.528Z,102887.56
2019-03-21T13:28:18.123Z,102880.38
2019-03-21T13:30:48.700Z,102871.25
2019-03-21T13:33:19.332Z,102867.45
2019-03-21T13:35:50.172Z,102867.19
2019-03-21T13:38:20.830Z,102864.59
2019-03-21T13:40:51.528Z,102864.67
2019-03-21T13:43:22.823Z,102866.86
2019-03-21T13:45:53.481Z,102869.16
2019-03-21T13:48:24.100Z,102868.22
2019-03-21T13:50:54.700Z,102866.00
2019-03-21T13:53:25.337Z,102864.40
2019-03-21T13:55:55.925Z,102861.05
2019-03-21T13:58:27.027Z,102862.41
2019-03-21T14:00:57.639Z,102868.03
2019-03-21T14:03:28.324Z,102858.25
2019-03-21T14:05:59.067Z,102858.45
2019-03-21T14:08:29.777Z,102856.30
2019-03-21T14:11:00.381Z,102856.61
2019-03-21T14:13:31.000Z,102855.97
2019-03-21T14:16:01.567Z,102855.61
2019-03-21T14:18:32.241Z,102858.88
2019-03-21T14:21:02.820Z,102852.04
2019-03-21T14:23:42.740Z,102847.99
2019-03-21T14:26:05.892Z,102842.70
2019-03-21T14:28:36.489Z,102839.36
2019-03-21T14:31:07.409Z,102838.15
2019-03-21T14:33:38.137Z,102837.20
2019-03-21T14:36:08.737Z,102845.10
2019-03-21T14:38:39.343Z,102836.89
2019-03-21T14:41:10.020Z,102844.91
2019-03-21T14:43:42.342Z,102847.46
2019-03-21T14:46:13.046Z,102846.61
2019-03-21T14:48:44.033Z,102845.06
2019-03-21T14:51:14.863Z,102841.66
2019-03-21T14:53:45.566Z,102844.86
2019-03-21T14:56:16.211Z,102843.24
2019-03-21T14:58:46.915Z,102846.95
2019-03-21T15:01:17.609Z,102846.02
2019-03-21T15:03:48.436Z,102848.00
2019-03-21T15:06:19.001Z,102853.98
2019-03-21T15:08:49.615Z,102851.73
2019-03-21T15:11:20.160Z,102859.62
2019-03-21T15:13:50.760Z,102854.45
2019-03-21T15:16:21.451Z,102862.26
2019-03-21T15:18:55.117Z,102859.72
2019-03-21T15:21:25.687Z,102857.27
2019-03-21T15:23:59.733Z,102858.52
2019-03-21T15:26:28.723Z,102865.27
2019-03-21T15:29:17.392Z,102864.02
2019-03-21T15:32:05.830Z,102859.56
2019-03-21T15:34:37.547Z,102863.27
2019-03-21T15:37:08.141Z,102861.59
2019-03-21T15:39:39.145Z,102859.10
2019-03-21T15:42:09.801Z,102855.50
2019-03-21T15:44:39.619Z,102858.10
2019-03-21T15:47:10.269Z,102854.13
2019-03-21T15:49:40.902Z,102848.72
2019-03-21T15:52:11.500Z,102842.41
2019-03-21T15:54:42.099Z,102845.31
2019-03-21T15:57:12.685Z,102842.41
2019-03-21T15:59:43.340Z,102846.25
2019-03-21T16:02:13.935Z,102841.26
2019-03-21T16:04:44.581Z,102847.50
2019-03-21T16:07:15.169Z,102849.11
2019-03-21T16:09:45.749Z,102851.25
2019-03-21T16:12:16.439Z,102852.27
2019-03-21T16:14:49.199Z,102851.55
2019-03-21T16:17:19.369Z,102837.74
2019-03-21T16:19:49.984Z,102845.16
2019-03-21T16:22:20.585Z,102843.45
2019-03-21T16:24:51.213Z,102836.36
2019-03-21T16:27:21.837Z,102834.40
2019-03-21T16:29:52.391Z,102830.14
2019-03-21T16:32:22.983Z,102830.86
2019-03-21T16:34:53.591Z,102840.11
2019-03-21T16:37:24.268Z,102827.00
2019-03-21T16:39:54.833Z,102838.76
2019-03-21T16:42:25.448Z,102842.81
2019-03-21T16:44:56.023Z,102843.20
2019-03-21T16:47:26.639Z,102840.30
2019-03-21T16:49:57.311Z,102829.30
2019-03-21T16:52:28.000Z,102826.39
2019-03-21T16:54:58.568Z,102827.23
2019-03-21T16:57:29.214Z,102819.63
2019-03-21T16:59:59.867Z,102822.75
2019-03-21T17:02:30.550Z,102826.90
2019-03-21T17:05:01.169Z,102833.25
2019-03-21T17:07:31.811Z,102823.05
2019-03-21T17:10:02.403Z,102822.20
2019-03-21T17:12:33.032Z,102816.70
2019-03-21T17:15:03.604Z,102826.37
2019-03-21T17:17:34.291Z,102822.31
2019-03-21T17:20:05.478Z,102831.57
2019-03-21T17:22:36.071Z,102833.11
2019-03-21T17:25:07.353Z,102835.61
2019-03-21T17:27:38.543Z,102841.62
2019-03-21T17:30:09.276Z,102835.83
2019-03-21T17:32:39.864Z,102838.64
2019-03-21T17:35:10.581Z,102838.41
2019-03-21T17:37:41.203Z,102836.14
2019-03-21T17:40:11.945Z,102833.73
2019-03-21T17:42:42.618Z,102828.14
2019-03-21T17:45:14.695Z,102825.00
2019-03-21T17:47:45.316Z,102831.27
2019-03-21T17:50:16.722Z,102832.50
2019-03-21T17:52:47.339Z,102837.36
2019-03-21T17:55:17.954Z,102836.23
2019-03-21T17:57:48.628Z,102841.20
2019-03-21T18:00:21.211Z,102844.95
2019-03-21T18:02:51.938Z,102842.97
2019-03-21T18:05:22.547Z,102857.19
2019-03-21T18:07:53.226Z,102863.70
2019-03-21T18:10:28.748Z,102863.02
2019-03-21T18:12:59.385Z,102855.23
2019-03-21T18:15:30.235Z,102864.17
2019-03-21T18:18:02.731Z,102865.52
2019-03-21T18:20:33.319Z,102861.37
2019-03-21T18:23:03.963Z,102855.55
2019-03-21T18:25:34.550Z,102863.98
2019-03-21T18:28:05.145Z,102866.44
2019-03-21T18:30:35.734Z,102865.48
2019-03-21T18:33:06.429Z,102862.36
2019-03-21T18:35:37.037Z,102856.66
2019-03-21T18:38:07.657Z,102858.52
2019-03-21T18:40:38.246Z,102855.75
2019-03-21T18:43:08.849Z,102857.93
2019-03-21T18:45:39.440Z,102849.50
2019-03-21T18:48:10.050Z,102855.06
2019-03-21T18:50:40.635Z,102854.91
2019-03-21T18:53:11.322Z,102853.47
2019-03-21T18:55:41.898Z,102858.65
2019-03-21T18:58:12.531Z,102858.47
2019-03-21T19:00:43.401Z,102859.91
2019-03-21T19:03:13.996Z,102862.10
2019-03-21T19:05:44.650Z,102865.36
2019-03-21T19:08:15.238Z,102867.27
2019-03-21T19:10:45.829Z,102867.03
2019-03-21T19:13:16.460Z,102862.88
2019-03-21T19:15:47.080Z,102859.75
2019-03-21T19:18:17.633Z,102860.27
2019-03-21T19:20:48.277Z,102865.80
2019-03-21T19:23:18.870Z,102864.78
2019-03-21T19:25:49.434Z,102867.78
2019-03-21T19:28:20.013Z,102868.62
2019-03-21T19:30:50.600Z,102866.08
2019-03-21T19:33:21.192Z,102874.82
2019-03-21T19:35:51.799Z,102870.04
2019-03-21T19:38:23.863Z,102872.54
2019-03-21T19:40:54.653Z,102871.19
2019-03-21T19:43:25.428Z,102870.84
2019-03-21T19:45:56.130Z,102874.15
2019-03-21T19:48:26.713Z,102877.69
2019-03-21T19:50:57.329Z,102877.11
2019-03-21T19:53:29.019Z,102883.40
2019-03-21T19:56:08.341Z,102883.69
2019-03-21T19:58:32.043Z,102882.73
2019-03-21T20:01:02.881Z,102884.22
2019-03-21T20:03:33.449Z,102891.47
2019-03-21T20:06:04.110Z,102891.63
2019-03-21T20:08:34.689Z,102893.83
2019-03-21T20:11:05.295Z,102900.02
2019-03-21T20:13:35.878Z,102899.88
2019-03-21T20:16:06.525Z,102903.16
2019-03-21T20:18:37.121Z,102893.60
2019-03-21T20:21:07.730Z,102889.45
2019-03-21T20:23:38.311Z,102897.73
2019-03-21T20:26:08.943Z,102895.45
2019-03-21T20:28:39.547Z,102897.66
2019-03-21T20:31:10.211Z,102902.59
2019-03-21T20:33:40.803Z,102904.42
2019-03-21T20:36:11.397Z,102910.86
2019-03-21T20:38:42.009Z,102916.27
2019-03-21T20:41:12.658Z,102920.46
2019-03-21T20:43:43.233Z,102921.89
2019-03-21T20:46:13.871Z,102927.63
2019-03-21T20:48:42.307Z,102927.13
2019-03-21T20:51:13.276Z,102925.81
2019-03-21T20:53:43.919Z,102925.23
2019-03-21T20:56:14.560Z,102920.96
2019-03-21T20:58:45.187Z,102919.03
2019-03-21T21:01:15.813Z,102920.46
2019-03-21T21:03:46.429Z,102919.34
2019-03-21T21:06:17.093Z,102921.34
2019-03-21T21:08:47.801Z,102923.97
2019-03-21T21:11:18.420Z,102927.33
2019-03-21T21:13:49.058Z,102927.13
2019-03-21T21:16:19.749Z,102925.78
2019-03-21T21:18:50.314Z,102927.24
2019-03-21T21:21:20.936Z,102933.87
2019-03-21T21:23:51.611Z,102930.75
2019-03-21T21:26:22.257Z,102942.93
2019-03-21T21:28:52.857Z,102936.21
2019-03-21T21:31:23.458Z,102944.97
2019-03-21T21:33:54.099Z,102937.77
2019-03-21T21:36:24.739Z,102938.96
2019-03-21T21:38:55.412Z,102941.65
2019-03-21T21:41:26.059Z,102936.14
2019-03-21T21:43:56.741Z,102937.09
2019-03-21T21:46:27.307Z,102930.27
2019-03-21T21:48:57.940Z,102926.03
2019-03-21T21:51:28.539Z,102929.16
2019-03-21T21:53:59.158Z,102930.36
2019-03-21T21:56:29.711Z,102923.06
2019-03-21T21:59:00.293Z,102932.77
2019-03-21T22:01:30.955Z,102923.20
2019-03-21T22:04:04.859Z,102930.28
2019-03-21T22:06:34.995Z,102918.63
2019-03-21T22:09:08.019Z,102923.53
2019-03-21T22:11:38.601Z,102918.16
2019-03-21T22:14:09.251Z,102917.80
2019-03-21T22:16:39.860Z,102919.48
2019-03-21T22:19:10.517Z,102912.70
2019-03-21T22:21:41.117Z,102912.02
2019-03-21T22:24:11.750Z,102916.84
2019-03-21T22:26:42.413Z,102909.20
2019-03-21T22:29:13.035Z,102910.94
2019-03-21T22:31:43.638Z,102908.23
2019-03-21T22:34:14.347Z,102910.17
2019-03-21T22:36:49.552Z,102910.40
2019-03-21T22:39:17.285Z,102909.09
2019-03-21T22:41:47.910Z,102906.46
2019-03-21T22:44:18.546Z,102903.66
2019-03-21T22:46:49.110Z,102913.99
2019-03-21T22:49:19.783Z,102913.31
2019-03-21T22:51:50.390Z,102903.02
2019-03-21T22:54:21.096Z,102906.22
2019-03-21T22:56:51.704Z,102905.05
2019-03-21T22:59:22.415Z,102909.25
2019-03-21T23:01:56.111Z,102910.81
2019-03-21T23:04:26.773Z,102910.20
2019-03-21T23:06:57.386Z,102908.00
2019-03-21T23:09:28.009Z,102908.70
2019-03-21T23:11:58.641Z,102905.47
2019-03-21T23:14:29.367Z,102917.98
2019-03-21T23:16:59.939Z,102917.98
2019-03-21T23:19:30.575Z,102911.11
2019-03-21T23:22:01.209Z,102911.11
2019-03-21T23:24:31.806Z,102910.64
2019-03-21T23:27:02.438Z,102918.16
2019-03-21T23:29:33.048Z,102914.52
2019-03-21T23:32:03.622Z,102918.95
2019-03-21T23:34:34.303Z,102918.95
2019-03-21T23:37:04.966Z,102914.91
2019-03-21T23:39:35.712Z,102913.00
2019-03-21T23:42:06.383Z,102909.47
2019-03-21T23:44:37.047Z,102910.07
2019-03-21T23:47:07.734Z,102906.34
2019-03-21T23:49:38.378Z,102898.17
2019-03-21T23:52:08.984Z,102909.61
2019-03-21T23:54:39.587Z,102911.97
2019-03-21T23:57:10.186Z,102904.61
2019-03-21T23:59:40.826Z,102913.69
